createdAt,value
2023-03-17T00:01:55.895Z,3.23
2023-03-17T00:04:25.734Z,3.20
2023-03-17T00:06:54.297Z,2.90
2023-03-17T00:09:23.253Z,2.37
2023-03-17T00:11:51.903Z,2.80
2023-03-17T00:14:20.671Z,3.93
2023-03-17T00:16:51.465Z,3.80
2023-03-17T00:19:29.798Z,5.00
2023-03-17T00:21:59.042Z,6.80
2023-03-17T00:24:27.438Z,7.13
2023-03-17T00:26:55.641Z,6.80
2023-03-17T00:29:24.175Z,5.43
2023-03-17T00:31:52.602Z,4.00
2023-03-17T00:34:25.130Z,3.20
2023-03-17T00:36:53.566Z,2.57
2023-03-17T00:39:24.185Z,2.87
2023-03-17T00:41:54.972Z,2.80
2023-03-17T00:44:24.067Z,2.27
2023-03-17T00:46:52.433Z,3.03
2023-03-17T00:49:24.706Z,2.70
2023-03-17T00:51:54.262Z,2.63
2023-03-17T00:54:23.499Z,3.90
2023-03-17T00:56:53.059Z,3.20
2023-03-17T00:59:27.646Z,3.47
2023-03-17T01:01:56.374Z,3.23
2023-03-17T01:04:26.107Z,3.13
2023-03-17T01:06:54.469Z,3.30
2023-03-17T01:09:27.454Z,3.40
2023-03-17T01:11:56.190Z,3.47
2023-03-17T01:14:25.720Z,3.27
2023-03-17T01:16:55.079Z,2.83
2023-03-17T01:19:25.386Z,4.27
2023-03-17T01:21:53.556Z,3.27
2023-03-17T01:24:21.859Z,3.30
2023-03-17T01:26:50.846Z,3.03
2023-03-17T01:29:19.137Z,2.70
2023-03-17T01:31:47.803Z,3.00
2023-03-17T01:34:16.493Z,2.70
2023-03-17T01:36:46.672Z,2.73
2023-03-17T01:39:15.652Z,3.03
2023-03-17T01:41:45.581Z,2.70
2023-03-17T01:44:18.392Z,2.90
2023-03-17T01:46:47.395Z,2.40
2023-03-17T01:49:29.979Z,2.23
2023-03-17T01:52:06.248Z,2.23
2023-03-17T01:54:40.981Z,2.37
2023-03-17T01:57:16.391Z,2.30
2023-03-17T01:59:49.453Z,2.40
2023-03-17T02:02:24.620Z,2.90
2023-03-17T02:04:54.129Z,2.33
2023-03-17T02:07:26.578Z,2.20
2023-03-17T02:09:55.847Z,2.70
2023-03-17T02:12:25.983Z,2.57
2023-03-17T02:14:54.591Z,2.43
2023-03-17T02:17:27.213Z,3.27
2023-03-17T02:19:56.239Z,3.13
2023-03-17T02:22:26.083Z,2.77
2023-03-17T02:24:58.360Z,2.50
2023-03-17T02:27:34.718Z,2.20
2023-03-17T02:30:03.131Z,2.70
2023-03-17T02:32:31.474Z,2.60
2023-03-17T02:34:59.632Z,2.70
2023-03-17T02:37:29.299Z,3.20
2023-03-17T02:39:57.861Z,3.07
2023-03-17T02:42:26.346Z,2.33
2023-03-17T02:44:54.877Z,2.27
2023-03-17T02:47:23.119Z,2.30
2023-03-17T02:49:51.649Z,2.40
2023-03-17T02:52:19.974Z,2.60
2023-03-17T02:54:49.900Z,2.40
2023-03-17T02:57:18.081Z,2.37
2023-03-17T02:59:46.399Z,1.87
2023-03-17T03:02:15.404Z,2.27
2023-03-17T03:04:44.132Z,2.70
2023-03-17T03:07:12.586Z,2.53
2023-03-17T03:09:41.975Z,3.27
2023-03-17T03:12:13.871Z,2.43
2023-03-17T03:14:42.477Z,2.80
2023-03-17T03:17:11.055Z,2.60
2023-03-17T03:19:39.514Z,2.70
2023-03-17T03:22:08.342Z,3.13
2023-03-17T03:24:36.789Z,2.97
2023-03-17T03:27:05.211Z,2.90
2023-03-17T03:29:34.752Z,2.90
2023-03-17T03:32:03.107Z,2.30
2023-03-17T03:34:31.874Z,3.00
2023-03-17T03:37:00.050Z,3.20
2023-03-17T03:39:28.303Z,2.50
2023-03-17T03:41:58.154Z,2.63
2023-03-17T03:44:26.408Z,3.00
2023-03-17T03:46:55.865Z,3.20
2023-03-17T03:49:24.432Z,3.10
2023-03-17T03:51:52.656Z,2.70
2023-03-17T03:54:20.798Z,3.03
2023-03-17T03:56:48.945Z,2.43
2023-03-17T03:59:17.457Z,2.27
2023-03-17T04:01:45.673Z,2.60
2023-03-17T04:04:15.460Z,2.60
2023-03-17T04:06:43.671Z,2.53
2023-03-17T04:09:12.622Z,2.80
2023-03-17T04:11:40.832Z,2.43
2023-03-17T04:14:09.020Z,2.83
2023-03-17T04:16:37.266Z,3.03
2023-03-17T04:19:05.426Z,2.40
2023-03-17T04:21:34.945Z,3.40
2023-03-17T04:24:05.156Z,3.10
2023-03-17T04:26:33.789Z,2.87
2023-03-17T04:29:01.994Z,2.50
2023-03-17T04:31:30.745Z,2.50
2023-03-17T04:33:58.843Z,2.60
2023-03-17T04:36:27.044Z,2.40
2023-03-17T04:38:56.492Z,2.50
2023-03-17T04:41:24.768Z,2.47
2023-03-17T04:43:52.942Z,2.50
2023-03-17T04:46:21.351Z,1.80
2023-03-17T04:48:49.528Z,2.57
2023-03-17T04:51:18.056Z,2.80
2023-03-17T04:53:46.225Z,2.77
2023-03-17T04:56:16.128Z,2.83
2023-03-17T04:58:44.315Z,2.57
2023-03-17T05:01:12.621Z,3.30
2023-03-17T05:03:40.995Z,3.70
2023-03-17T05:06:09.387Z,3.10
2023-03-17T05:08:37.883Z,2.63
2023-03-17T05:11:07.266Z,3.03
2023-03-17T05:13:36.734Z,2.87
2023-03-17T05:16:05.913Z,2.80
2023-03-17T05:18:34.410Z,2.70
2023-03-17T05:21:02.724Z,2.67
2023-03-17T05:23:31.058Z,2.93
2023-03-17T05:25:59.314Z,2.90
2023-03-17T05:28:28.220Z,3.10
2023-03-17T05:30:58.261Z,2.63
2023-03-17T05:33:27.767Z,2.80
2023-03-17T05:35:56.139Z,2.73
2023-03-17T05:38:25.070Z,3.50
2023-03-17T05:40:53.687Z,3.30
2023-03-17T05:43:22.100Z,3.03
2023-03-17T05:45:50.992Z,3.20
2023-03-17T05:48:21.094Z,3.67
2023-03-17T05:50:49.564Z,3.57
2023-03-17T05:53:18.697Z,3.70
2023-03-17T05:55:46.970Z,3.43
2023-03-17T05:58:15.721Z,3.57
2023-03-17T06:00:44.729Z,3.63
2023-03-17T06:03:12.946Z,2.97
2023-03-17T06:05:42.637Z,3.10
2023-03-17T06:08:10.814Z,2.80
2023-03-17T06:10:39.011Z,3.07
2023-03-17T06:13:07.349Z,2.90
2023-03-17T06:15:36.864Z,3.50
2023-03-17T06:18:06.145Z,3.57
2023-03-17T06:20:34.964Z,3.43
2023-03-17T06:23:05.968Z,3.77
2023-03-17T06:25:35.106Z,4.33
2023-03-17T06:28:04.079Z,3.67
2023-03-17T06:30:33.779Z,3.50
2023-03-17T06:33:02.522Z,3.60
2023-03-17T06:35:31.801Z,5.17
2023-03-17T06:38:00.827Z,5.00
2023-03-17T06:40:31.018Z,4.70
2023-03-17T06:42:59.568Z,4.27
2023-03-17T06:45:28.135Z,5.13
2023-03-17T06:47:57.015Z,4.17
2023-03-17T06:50:25.513Z,4.70
2023-03-17T06:52:53.929Z,4.30
2023-03-17T06:55:22.438Z,3.53
2023-03-17T06:57:52.395Z,4.60
2023-03-17T07:00:22.496Z,3.10
2023-03-17T07:02:51.232Z,3.50
2023-03-17T07:05:19.538Z,3.30
2023-03-17T07:07:47.746Z,3.83
2023-03-17T07:10:17.198Z,3.70
2023-03-17T07:12:45.727Z,6.60
2023-03-17T07:15:15.587Z,9.47
2023-03-17T07:17:43.981Z,4.10
2023-03-17T07:20:13.848Z,4.03
2023-03-17T07:22:42.430Z,3.40
2023-03-17T07:25:11.496Z,3.03
2023-03-17T07:27:40.269Z,2.80
2023-03-17T07:30:10.898Z,3.60
2023-03-17T07:32:40.471Z,3.00
2023-03-17T07:35:08.985Z,3.57
2023-03-17T07:37:37.148Z,3.10
2023-03-17T07:40:09.027Z,4.33
2023-03-17T07:42:37.401Z,3.70
2023-03-17T07:45:07.938Z,3.00
2023-03-17T07:47:36.428Z,4.97
2023-03-17T07:50:07.271Z,4.40
2023-03-17T07:52:35.433Z,4.90
2023-03-17T07:55:03.736Z,4.57
2023-03-17T07:57:31.923Z,3.30
2023-03-17T08:00:01.210Z,2.87
2023-03-17T08:02:39.949Z,3.20
2023-03-17T08:05:11.429Z,3.00
2023-03-17T08:07:40.449Z,3.37
2023-03-17T08:10:11.576Z,3.17
2023-03-17T08:12:40.626Z,2.77
2023-03-17T08:15:10.347Z,3.37
2023-03-17T08:17:39.705Z,2.60
2023-03-17T08:20:11.541Z,2.20
2023-03-17T08:22:39.700Z,2.87
2023-03-17T08:25:09.540Z,2.43
2023-03-17T08:27:37.704Z,2.90
2023-03-17T08:30:07.871Z,3.20
2023-03-17T08:32:36.607Z,3.50
2023-03-17T08:35:06.385Z,2.77
2023-03-17T08:37:36.110Z,3.63
2023-03-17T08:40:05.372Z,3.20
2023-03-17T08:42:33.496Z,2.87
2023-03-17T08:45:01.757Z,7.27
2023-03-17T08:47:29.942Z,4.37
2023-03-17T08:50:00.188Z,2.27
2023-03-17T08:52:28.781Z,2.60
2023-03-17T08:54:58.320Z,2.83
2023-03-17T08:57:26.889Z,3.17
2023-03-17T08:59:55.857Z,2.60
2023-03-17T09:02:24.064Z,2.50
2023-03-17T09:04:52.792Z,2.50
2023-03-17T09:07:21.712Z,3.10
2023-03-17T09:09:49.866Z,2.43
2023-03-17T09:12:19.443Z,1.87
2023-03-17T09:14:49.401Z,2.33
2023-03-17T09:17:17.961Z,2.20
2023-03-17T09:19:46.945Z,2.03
2023-03-17T09:22:17.538Z,1.90
2023-03-17T09:24:46.598Z,2.53
2023-03-17T09:27:14.985Z,1.97
2023-03-17T09:29:44.540Z,1.80
2023-03-17T09:32:12.757Z,2.13
2023-03-17T09:34:41.966Z,1.50
2023-03-17T09:37:11.034Z,1.60
2023-03-17T09:39:39.333Z,1.80
2023-03-17T09:42:24.351Z,1.10
2023-03-17T09:45:12.319Z,1.47
2023-03-17T09:47:56.463Z,1.10
2023-03-17T09:50:30.234Z,1.10
2023-03-17T09:53:03.447Z,1.30
2023-03-17T09:55:34.134Z,1.20
2023-03-17T09:58:03.489Z,1.30
2023-03-17T10:00:34.711Z,1.13
2023-03-17T10:03:03.493Z,1.27
2023-03-17T10:05:34.674Z,1.17
2023-03-17T10:08:28.966Z,1.10
2023-03-17T10:11:09.410Z,1.90
2023-03-17T10:13:51.694Z,1.40
2023-03-17T10:16:34.653Z,1.50
2023-03-17T10:19:07.592Z,1.30
2023-03-17T10:21:41.013Z,2.03
2023-03-17T10:24:12.230Z,1.10
2023-03-17T10:26:45.902Z,1.30
2023-03-17T10:29:17.755Z,1.30
2023-03-17T10:31:47.606Z,1.40
2023-03-17T10:34:18.030Z,1.47
2023-03-17T10:36:50.965Z,1.40
2023-03-17T10:39:21.676Z,1.10
2023-03-17T10:41:56.977Z,1.43
2023-03-17T10:44:43.923Z,1.10
2023-03-17T10:47:31.548Z,0.87
2023-03-17T10:50:05.618Z,1.20
2023-03-17T10:52:40.692Z,1.20
2023-03-17T10:55:14.308Z,1.00
2023-03-17T10:57:52.684Z,1.13
2023-03-17T11:00:23.338Z,1.20
2023-03-17T11:02:58.862Z,0.90
2023-03-17T11:05:29.618Z,1.10
2023-03-17T11:08:12.626Z,1.17
2023-03-17T11:10:42.577Z,1.23
2023-03-17T11:13:11.343Z,1.00
2023-03-17T11:15:44.333Z,1.50
2023-03-17T11:18:21.392Z,1.10
2023-03-17T11:20:55.489Z,1.00
2023-03-17T11:23:38.613Z,0.70
2023-03-17T11:26:28.854Z,0.90
2023-03-17T11:29:24.401Z,1.00
2023-03-17T11:32:01.400Z,1.53
2023-03-17T11:34:48.953Z,0.90
2023-03-17T11:37:31.464Z,0.73
2023-03-17T11:40:08.738Z,1.00
2023-03-17T11:42:45.743Z,0.87
2023-03-17T11:45:25.088Z,0.93
2023-03-17T11:48:20.789Z,1.00
2023-03-17T11:50:57.588Z,1.10
2023-03-17T11:53:47.260Z,0.83
2023-03-17T11:56:20.911Z,1.57
2023-03-17T11:58:54.976Z,1.20
2023-03-17T12:01:28.238Z,1.00
2023-03-17T12:04:10.674Z,1.30
2023-03-17T12:06:47.416Z,1.00
2023-03-17T12:09:26.912Z,1.17
2023-03-17T12:11:57.010Z,1.10
2023-03-17T12:14:31.074Z,1.00
2023-03-17T12:17:07.481Z,0.87
2023-03-17T12:19:43.272Z,1.03
2023-03-17T12:22:22.647Z,0.80
2023-03-17T12:25:04.344Z,0.80
2023-03-17T12:27:38.044Z,1.07
2023-03-17T12:30:18.927Z,1.00
2023-03-17T12:32:55.201Z,0.87
2023-03-17T12:35:29.746Z,0.80
2023-03-17T12:38:02.832Z,1.10
2023-03-17T12:40:36.514Z,1.00
2023-03-17T12:43:27.359Z,0.87
2023-03-17T12:46:14.296Z,1.27
2023-03-17T12:49:14.276Z,1.00
2023-03-17T12:52:23.301Z,1.00
2023-03-17T12:54:53.736Z,0.70
2023-03-17T12:57:28.122Z,0.70
2023-03-17T13:00:05.549Z,1.30
2023-03-17T13:02:39.516Z,1.20
2023-03-17T13:05:11.757Z,1.00
2023-03-17T13:07:48.145Z,0.80
2023-03-17T13:10:38.267Z,0.90
2023-03-17T13:13:23.496Z,0.97
2023-03-17T13:16:01.408Z,0.87
2023-03-17T13:18:53.846Z,0.90
2023-03-17T13:21:26.353Z,0.60
2023-03-17T13:24:21.149Z,0.80
2023-03-17T13:27:01.677Z,1.10
2023-03-17T13:29:47.188Z,1.10
2023-03-17T13:32:35.890Z,1.00
2023-03-17T13:35:42.944Z,0.77
2023-03-17T13:38:52.522Z,0.70
2023-03-17T13:42:05.584Z,0.83
2023-03-17T13:45:05.494Z,1.03
2023-03-17T13:47:35.916Z,0.80
2023-03-17T13:50:09.624Z,0.80
2023-03-17T13:52:44.560Z,1.03
2023-03-17T13:55:40.936Z,0.90
2023-03-17T13:58:34.257Z,0.97
2023-03-17T14:01:09.038Z,0.80
2023-03-17T14:03:43.782Z,1.07
2023-03-17T14:06:14.352Z,0.80
2023-03-17T14:08:49.093Z,1.20
2023-03-17T14:11:33.592Z,0.80
2023-03-17T14:14:32.654Z,0.70
2023-03-17T14:17:10.835Z,1.10
2023-03-17T14:19:41.670Z,0.83
2023-03-17T14:22:24.635Z,1.30
2023-03-17T14:24:54.740Z,0.87
2023-03-17T14:27:25.063Z,1.03
2023-03-17T14:29:54.791Z,1.30
2023-03-17T14:32:26.474Z,1.10
2023-03-17T14:35:00.308Z,1.00
2023-03-17T14:37:29.609Z,0.87
2023-03-17T14:40:00.125Z,0.93
2023-03-17T14:42:30.664Z,0.87
2023-03-17T14:45:06.505Z,0.83
2023-03-17T14:47:41.141Z,0.90
2023-03-17T14:50:32.222Z,1.23
2023-03-17T14:53:01.659Z,1.33
2023-03-17T14:55:39.689Z,1.13
2023-03-17T14:58:12.033Z,0.80
2023-03-17T15:00:46.850Z,1.23
2023-03-17T15:03:22.255Z,0.93
2023-03-17T15:05:51.419Z,0.90
2023-03-17T15:08:42.635Z,0.90
2023-03-17T15:11:24.302Z,0.80
2023-03-17T15:13:57.934Z,1.07
2023-03-17T15:16:31.119Z,1.13
2023-03-17T15:19:07.551Z,1.10
2023-03-17T15:21:40.896Z,1.03
2023-03-17T15:24:26.950Z,0.93
2023-03-17T15:27:07.253Z,1.03
2023-03-17T15:29:35.750Z,1.00
2023-03-17T15:32:14.161Z,1.10
2023-03-17T15:34:42.886Z,0.73
2023-03-17T15:37:20.459Z,0.77
2023-03-17T15:39:49.645Z,1.00
2023-03-17T15:42:20.390Z,0.90
2023-03-17T15:44:48.696Z,0.80
2023-03-17T15:47:20.893Z,1.10
2023-03-17T15:49:50.898Z,1.20
2023-03-17T15:52:22.951Z,1.30
2023-03-17T15:57:29.544Z,1.30
2023-03-17T15:59:57.760Z,1.20
2023-03-17T16:02:34.015Z,1.70
2023-03-17T16:05:05.958Z,1.77
2023-03-17T16:07:34.149Z,1.50
2023-03-17T16:10:02.333Z,1.03
2023-03-17T16:12:30.640Z,1.40
2023-03-17T16:14:58.782Z,1.20
2023-03-17T16:17:32.160Z,1.37
2023-03-17T16:20:01.192Z,1.27
2023-03-17T16:22:41.833Z,1.20
2023-03-17T16:25:24.745Z,1.57
2023-03-17T16:27:54.220Z,1.27
2023-03-17T16:30:25.817Z,1.10
2023-03-17T16:32:59.143Z,1.40
2023-03-17T16:35:27.649Z,0.87
2023-03-17T16:37:56.224Z,1.20
2023-03-17T16:40:27.711Z,1.40
2023-03-17T16:42:55.986Z,1.30
2023-03-17T16:45:29.776Z,1.57
2023-03-17T16:48:01.369Z,1.80
2023-03-17T16:50:32.594Z,2.20
2023-03-17T16:53:03.898Z,2.10
2023-03-17T16:55:32.458Z,2.20
2023-03-17T16:58:04.998Z,1.93
2023-03-17T17:00:33.833Z,2.30
2023-03-17T17:03:05.941Z,2.33
2023-03-17T17:05:34.179Z,2.53
2023-03-17T17:08:02.517Z,2.70
2023-03-17T17:10:34.116Z,2.10
2023-03-17T17:13:02.847Z,2.20
2023-03-17T17:15:31.776Z,2.33
2023-03-17T17:18:06.095Z,3.00
2023-03-17T17:20:37.648Z,2.30
2023-03-17T17:23:07.424Z,2.30
2023-03-17T17:25:35.642Z,2.20
2023-03-17T17:28:04.150Z,2.27
2023-03-17T17:30:33.325Z,2.20
2023-03-17T17:33:03.893Z,2.10
2023-03-17T17:35:33.843Z,2.90
2023-03-17T17:38:02.345Z,2.50
2023-03-17T17:40:32.164Z,2.80
2023-03-17T17:43:00.684Z,2.17
2023-03-17T17:45:28.827Z,4.43
2023-03-17T17:47:57.183Z,3.70
2023-03-17T17:50:29.882Z,3.60
2023-03-17T17:53:04.904Z,4.20
2023-03-17T17:55:34.525Z,3.80
2023-03-17T17:58:02.732Z,3.93
2023-03-17T18:00:32.642Z,4.83
2023-03-17T18:03:01.053Z,10.50
2023-03-17T18:05:32.162Z,8.70
2023-03-17T18:08:02.262Z,9.20
2023-03-17T18:10:31.718Z,4.73
2023-03-17T18:13:00.431Z,17.70
2023-03-17T18:15:29.097Z,9.17
2023-03-17T18:17:57.705Z,4.10
2023-03-17T18:20:27.119Z,2.60
2023-03-17T18:22:56.819Z,2.97
2023-03-17T18:25:27.087Z,3.30
2023-03-17T18:27:56.296Z,4.03
2023-03-17T18:30:27.080Z,3.30
2023-03-17T18:33:01.495Z,3.80
2023-03-17T18:35:30.676Z,3.43
2023-03-17T18:38:01.505Z,3.50
2023-03-17T18:40:29.929Z,3.80
2023-03-17T18:42:58.420Z,3.47
2023-03-17T18:45:26.629Z,3.10
2023-03-17T18:47:54.832Z,3.63
2023-03-17T18:50:23.161Z,3.40
2023-03-17T18:52:51.995Z,3.57
2023-03-17T18:55:21.703Z,3.53
2023-03-17T18:57:49.887Z,2.90
2023-03-17T19:00:19.308Z,4.10
2023-03-17T19:02:47.886Z,3.23
2023-03-17T19:05:16.337Z,3.37
2023-03-17T19:07:44.709Z,3.53
2023-03-17T19:10:14.112Z,5.43
2023-03-17T19:12:45.391Z,5.27
2023-03-17T19:15:15.195Z,8.07
2023-03-17T19:17:43.408Z,5.10
2023-03-17T19:20:13.300Z,4.60
2023-03-17T19:22:41.740Z,3.80
2023-03-17T19:25:11.242Z,17.40
2023-03-17T19:27:39.944Z,20.00
2023-03-17T19:30:11.702Z,30.30
2023-03-17T19:32:40.132Z,6.63
2023-03-17T19:35:09.671Z,6.47
2023-03-17T19:37:38.128Z,6.80
2023-03-17T19:40:09.714Z,4.77
2023-03-17T19:42:38.357Z,4.20
2023-03-17T19:45:09.614Z,4.60
2023-03-17T19:47:37.904Z,3.70
2023-03-17T19:50:07.649Z,4.30
2023-03-17T19:52:35.808Z,4.47
2023-03-17T19:55:05.925Z,3.80
2023-03-17T19:57:35.589Z,4.00
2023-03-17T20:00:04.034Z,4.03
2023-03-17T20:02:39.703Z,4.30
2023-03-17T20:05:09.518Z,3.60
2023-03-17T20:07:37.995Z,4.53
2023-03-17T20:10:08.053Z,4.30
2023-03-17T20:12:38.077Z,4.43
2023-03-17T20:15:08.553Z,4.30
2023-03-17T20:17:37.381Z,4.87
2023-03-17T20:20:10.729Z,5.10
2023-03-17T20:22:40.375Z,8.17
2023-03-17T20:25:10.305Z,9.37
2023-03-17T20:27:38.916Z,10.40
2023-03-17T20:30:09.493Z,19.90
2023-03-17T20:32:38.092Z,10.40
2023-03-17T20:35:09.070Z,8.87
2023-03-17T20:37:38.698Z,7.60
2023-03-17T20:40:09.890Z,8.10
2023-03-17T20:42:38.156Z,7.97
2023-03-17T20:45:07.591Z,8.20
2023-03-17T20:47:36.132Z,8.43
2023-03-17T20:50:04.568Z,5.83
2023-03-17T20:52:34.080Z,7.20
2023-03-17T20:55:02.553Z,7.33
2023-03-17T20:57:30.743Z,7.30
2023-03-17T20:59:59.092Z,6.17
2023-03-17T21:02:27.359Z,6.80
2023-03-17T21:04:55.719Z,6.37
2023-03-17T21:07:24.138Z,7.10
2023-03-17T21:09:56.423Z,6.93
2023-03-17T21:12:25.375Z,5.60
2023-03-17T21:14:53.484Z,7.50
2023-03-17T21:17:22.745Z,7.33
2023-03-17T21:19:51.130Z,6.73
2023-03-17T21:22:19.437Z,6.13
2023-03-17T21:24:47.743Z,6.43
2023-03-17T21:27:17.847Z,7.00
2023-03-17T21:29:48.011Z,7.17
2023-03-17T21:32:16.585Z,6.30
2023-03-17T21:34:45.002Z,6.30
2023-03-17T21:37:13.113Z,5.80
2023-03-17T21:39:41.239Z,5.73
2023-03-17T21:42:10.522Z,5.77
2023-03-17T21:44:42.115Z,5.33
2023-03-17T21:47:10.344Z,7.20
2023-03-17T21:49:38.923Z,5.57
2023-03-17T21:52:07.107Z,6.23
2023-03-17T21:54:37.061Z,5.43
2023-03-17T21:57:05.808Z,5.93
2023-03-17T21:59:35.691Z,5.70
2023-03-17T22:02:06.532Z,5.87
2023-03-17T22:04:34.669Z,5.97
2023-03-17T22:07:04.399Z,5.73
2023-03-17T22:09:32.625Z,5.97
2023-03-17T22:12:00.800Z,7.33
2023-03-17T22:14:28.989Z,6.87
2023-03-17T22:16:57.338Z,7.73
2023-03-17T22:19:27.130Z,6.40
2023-03-17T22:21:55.889Z,6.13
2023-03-17T22:24:25.417Z,7.30
2023-03-17T22:26:53.604Z,7.20
2023-03-17T22:29:21.754Z,6.20
2023-03-17T22:31:50.097Z,6.60
2023-03-17T22:34:18.315Z,7.13
2023-03-17T22:36:47.799Z,6.80
2023-03-17T22:39:16.188Z,6.37
2023-03-17T22:41:44.997Z,6.73
2023-03-17T22:44:13.195Z,5.90
2023-03-17T22:46:41.794Z,6.13
2023-03-17T22:49:11.278Z,5.70
2023-03-17T22:51:41.153Z,6.87
2023-03-17T22:54:12.691Z,6.23
2023-03-17T22:56:40.911Z,7.57
2023-03-17T22:59:09.173Z,6.50
2023-03-17T23:01:37.522Z,5.00
2023-03-17T23:04:05.842Z,5.70
2023-03-17T23:06:35.120Z,7.40
2023-03-17T23:09:03.282Z,6.13
2023-03-17T23:11:32.840Z,5.37
2023-03-17T23:14:00.947Z,5.30
2023-03-17T23:16:29.206Z,5.50
2023-03-17T23:18:58.078Z,5.40
2023-03-17T23:21:31.745Z,5.80
2023-03-17T23:24:00.553Z,5.47
2023-03-17T23:26:30.019Z,5.73
2023-03-17T23:28:59.666Z,5.83
2023-03-17T23:31:27.945Z,6.50
2023-03-17T23:33:56.716Z,6.80
2023-03-17T23:36:25.057Z,7.73
2023-03-17T23:38:53.438Z,6.83
2023-03-17T23:41:22.654Z,5.97
2023-03-17T23:43:51.007Z,6.93
2023-03-17T23:46:20.996Z,6.90
2023-03-17T23:48:50.384Z,6.97
2023-03-17T23:51:18.812Z,6.80
2023-03-17T23:53:48.043Z,6.93
2023-03-17T23:56:16.235Z,6.60
2023-03-17T23:58:44.645Z,5.83
